x

Dunkirk, Ny (dbln6) Weather Station

9:00am - Tue 25th Jul 2017 All times are CDT. -5 hours from GMT.

  • Wind
    17mph, 20mph gusts
  • Air Temp 64°f
  • Sea Pressure 1021.7mb
  • Dunkirk, Ny
  • Dunkirk, Ny

More Historic Weather Station data

Upgrade to MSW Pro to gain access to the past 30 days of data for over 8000 Wavebouys and Weather Stations around the globe.

Join Pro

Comparision Forecast

View Surf forecast
   
Tue 07/25 9:00am 17 20 mph 1021.7mb 64f
8:00am 13 16 mph 1021.5mb 65f
7:00am 17 21 mph 1020.5mb 63f
6:00am 18 21 mph 1019.6mb 64f
5:00am 13 17 mph 1019.1mb 65f
4:00am 14 17 mph 1018.4mb 65f
3:00am 15 17 mph 1017.7mb 65f
2:00am 18 22 mph 1017.1mb 64f
1:00am 14 18 mph 1017mb 65f
12:00am 16 21 mph 1016.4mb 65f
Mon 07/24 11:00pm 16 22 mph 1015.8mb 65f
10:00pm 16 20 mph 1015.1mb 64f
9:00pm 14 21 mph 1014.5mb 63f
8:00pm 17 23 mph 1013.4mb 64f
7:00pm 20 23 mph 1012.6mb 66f
6:00pm 15 22 mph 1012.1mb 68f
5:00pm 20 25 mph 1011.1mb 68f
4:00pm 21 26 mph 1010.5mb 69f
3:00pm 24 31 mph 1009.6mb 70f
2:00pm 21 29 mph 1009.4mb 71f
1:00pm 20 25 mph 1009.3mb 71f
12:00pm 22 28 mph 1009mb 71f
11:00am 20 25 mph 1009.1mb 71f
10:00am 16 20 mph 1009.2mb 71f
9:00am 15 18 mph 1009mb 70f
8:00am 13 16 mph 1008.9mb 71f
7:00am 15 18 mph 1008.4mb 71f
6:00am 11 16 mph 1008mb 72f
5:00am 15 20 mph 1006.7mb 72f
4:00am 6 8 mph 1006.4mb 72f
3:00am 6 10 mph 1006.1mb 72f
2:00am 6 10 mph 1006.2mb 71f
1:00am 3 7 mph 1006.6mb 72f
12:00am 5 7 mph 1007.1mb 71f
Sun 07/23 11:00pm 3 5 mph 1007.1mb 72f
10:00pm 3 6 mph 1006.9mb 74f
9:00pm 6 7 mph 1007.5mb 74f
8:00pm 3 6 mph 1006.8mb 74f
7:00pm 5 6 mph 1006.5mb 75f
6:00pm 3 5 mph 1006.8mb 75f
5:00pm 6 8 mph 1006.9mb 76f
4:00pm 6 10 mph 1007.1mb 76f
3:00pm 8 10 mph 1007.4mb 76f
2:00pm 7 9 mph 1008.2mb 75f
1:00pm 10 13 mph 1007.9mb 74f
12:00pm 13 15 mph 1008mb 75f
11:00am 8 11 mph 1008mb 75f
10:00am 5 6 mph 1007.7mb 76f
9:00am 3 5 mph 1007.9mb 75f
8:00am 2 3 mph 1007.8mb 74f
7:00am 1 3 mph 1007.8mb 73f
6:00am 3 5 mph 1007.7mb 71f
5:00am 3 5 mph 1007.4mb 69f
4:00am 5 5 mph 1007.4mb 71f
3:00am 7 9 mph 1007.1mb 71f
2:00am 7 8 mph 1007.3mb 71f
1:00am 5 6 mph 1007.9mb 72f
12:00am 1 3 mph 1008.5mb 72f
Sat 07/22 11:00pm 3 3 mph 1008.7mb 73f
10:00pm  -  1 mph 1008.9mb 74f
9:00pm 3 5 mph 1008.7mb 74f
8:00pm 3 6 mph 1008.6mb 75f
7:00pm 5 6 mph 1008.3mb 75f
6:00pm 8 8 mph 1008.1mb 76f
5:00pm 10 13 mph 1007.6mb 76f
4:00pm 14 15 mph 1008.2mb 76f
3:00pm 11 13 mph 1008.5mb 75f
2:00pm 17 18 mph 1008.8mb 74f
1:00pm 9 10 mph 1010.4mb 75f
12:00pm 9 10 mph 1010.7mb 75f
11:00am 6 7 mph 1011.3mb 74f
10:00am 5 7 mph 1011.8mb 75f
9:00am 7 8 mph 1012.5mb 73f
8:00am 6 8 mph 1012.6mb 72f
7:00am 3 5 mph 1012.9mb 71f
6:00am 8 10 mph 1012.9mb 70f
5:00am 8 11 mph 1012.7mb 70f
4:00am 7 7 mph 1012.9mb 70f
3:00am 7 8 mph 1012.6mb 70f
2:00am 5 6 mph 1013.2mb 72f
1:00am 6 8 mph 1014.4mb 73f
12:00am 6 7 mph 1014.7mb 72f
Fri 07/21 11:00pm 5 6 mph 1014.7mb 74f
10:00pm 6 9 mph 1013.9mb 75f
9:00pm 9 13 mph 1013.8mb 77f
8:00pm 11 14 mph 1013.7mb 77f
7:00pm 11 14 mph 1013.8mb 77f
6:00pm 9 11 mph 1013.5mb 77f
5:00pm 8 13 mph 1013.8mb 78f
4:00pm 10 13 mph 1013.8mb 78f